createdAt,value
2023-02-19T00:00:27.802Z,4.53
2023-02-19T00:01:34.054Z,4.07
2023-02-19T00:02:35.687Z,4.53
2023-02-19T00:03:37.827Z,4.40
2023-02-19T00:04:39.812Z,4.30
2023-02-19T00:05:41.941Z,4.33
2023-02-19T00:06:44.364Z,4.63
2023-02-19T00:07:46.090Z,3.90
2023-02-19T00:08:47.844Z,4.27
2023-02-19T00:09:49.507Z,4.53
2023-02-19T00:10:51.291Z,4.27
2023-02-19T00:11:52.964Z,4.20
2023-02-19T00:12:57.104Z,4.07
2023-02-19T00:14:00.064Z,4.67
2023-02-19T00:15:02.791Z,4.50
2023-02-19T00:16:08.460Z,4.63
2023-02-19T00:17:10.045Z,3.93
2023-02-19T00:18:11.918Z,4.23
2023-02-19T00:19:17.495Z,4.30
2023-02-19T00:20:19.158Z,3.90
2023-02-19T00:21:20.610Z,4.17
2023-02-19T00:22:25.534Z,4.23
2023-02-19T00:23:28.203Z,4.07
2023-02-19T00:24:30.674Z,4.20
2023-02-19T00:25:36.412Z,4.20
2023-02-19T00:26:38.934Z,4.60
2023-02-19T00:27:41.020Z,3.90
2023-02-19T00:28:42.896Z,4.27
2023-02-19T00:29:47.163Z,3.87
2023-02-19T00:30:54.506Z,4.53
2023-02-19T00:31:56.467Z,4.13
2023-02-19T00:32:58.883Z,4.20
2023-02-19T00:34:01.542Z,3.77
2023-02-19T00:35:07.100Z,3.87
2023-02-19T00:36:09.042Z,4.00
2023-02-19T00:37:10.909Z,4.00
2023-02-19T00:38:13.884Z,3.80
2023-02-19T00:39:16.373Z,3.90
2023-02-19T00:40:18.267Z,3.70
2023-02-19T00:41:20.632Z,3.80
2023-02-19T00:42:23.618Z,4.00
2023-02-19T00:43:25.331Z,4.27
2023-02-19T00:44:28.130Z,3.87
2023-02-19T00:45:29.780Z,3.73
2023-02-19T00:46:33.682Z,3.60
2023-02-19T00:47:35.225Z,3.40
2023-02-19T00:48:37.215Z,3.10
2023-02-19T00:49:44.666Z,3.80
2023-02-19T00:50:46.397Z,3.97
2023-02-19T00:51:48.853Z,3.37
2023-02-19T00:52:50.905Z,3.60
2023-02-19T00:53:53.119Z,3.03
2023-02-19T00:54:54.652Z,3.50
2023-02-19T00:55:56.410Z,3.43
2023-02-19T00:56:58.044Z,3.00
2023-02-19T00:57:59.732Z,3.10
2023-02-19T00:59:01.856Z,2.90
2023-02-19T01:00:07.511Z,3.20
2023-02-19T01:01:09.845Z,2.80
2023-02-19T01:02:11.843Z,2.60
2023-02-19T01:03:13.547Z,2.80
2023-02-19T01:04:16.551Z,2.70
2023-02-19T01:05:18.831Z,2.60
2023-02-19T01:06:21.451Z,2.50
2023-02-19T01:07:23.157Z,2.60
2023-02-19T01:08:26.284Z,2.70
2023-02-19T01:09:28.208Z,2.43
2023-02-19T01:10:29.700Z,2.40
2023-02-19T01:11:32.239Z,2.50
2023-02-19T01:12:34.400Z,2.50
2023-02-19T01:13:36.356Z,2.70
2023-02-19T01:14:38.104Z,2.63
2023-02-19T01:15:39.764Z,2.70
2023-02-19T01:16:41.452Z,2.50
2023-02-19T01:17:43.111Z,2.70
2023-02-19T01:18:48.022Z,2.37
2023-02-19T01:19:50.445Z,2.77
2023-02-19T01:20:52.032Z,2.60
2023-02-19T01:21:53.706Z,2.73
2023-02-19T01:22:55.764Z,2.50
2023-02-19T01:23:58.116Z,2.90
2023-02-19T01:25:00.893Z,2.60
2023-02-19T01:26:06.670Z,2.80
2023-02-19T01:27:08.562Z,2.87
2023-02-19T01:28:11.497Z,2.30
2023-02-19T01:29:13.426Z,2.77
2023-02-19T01:30:15.276Z,2.50
2023-02-19T01:31:20.906Z,2.80
2023-02-19T01:32:22.743Z,2.50
2023-02-19T01:33:24.720Z,2.70
2023-02-19T01:34:27.105Z,2.70
2023-02-19T01:35:28.920Z,2.73
2023-02-19T01:36:32.937Z,2.40
2023-02-19T01:37:34.589Z,2.50
2023-02-19T01:38:36.042Z,2.50
2023-02-19T01:39:38.870Z,2.37
2023-02-19T01:40:40.537Z,2.60
2023-02-19T01:41:42.244Z,2.63
2023-02-19T01:42:44.705Z,2.57
2023-02-19T01:43:55.586Z,2.53
2023-02-19T01:45:16.127Z,2.30
2023-02-19T01:46:17.594Z,2.80
2023-02-19T01:47:28.003Z,2.60
2023-02-19T01:48:34.467Z,2.40
2023-02-19T01:49:41.844Z,2.67
2023-02-19T01:50:45.805Z,2.40
2023-02-19T01:51:54.259Z,2.47
2023-02-19T01:52:56.460Z,2.20
2023-02-19T01:53:58.979Z,2.20
2023-02-19T01:55:01.470Z,2.20
2023-02-19T01:56:03.226Z,2.27
2023-02-19T01:57:06.788Z,2.10
2023-02-19T01:58:08.711Z,2.03
2023-02-19T01:59:12.573Z,1.90
2023-02-19T02:00:15.359Z,2.00
2023-02-19T02:01:16.844Z,1.70
2023-02-19T02:02:18.267Z,1.70
2023-02-19T02:03:19.761Z,1.90
2023-02-19T02:04:21.443Z,1.60
2023-02-19T02:05:41.371Z,1.73
2023-02-19T02:06:49.182Z,1.87
2023-02-19T02:08:09.168Z,1.90
2023-02-19T02:09:29.455Z,1.80
2023-02-19T02:10:30.922Z,1.60
2023-02-19T02:11:32.322Z,2.20
2023-02-19T02:12:34.023Z,1.40
2023-02-19T02:13:36.508Z,1.50
2023-02-19T02:14:39.107Z,1.60
2023-02-19T02:15:48.783Z,1.37
2023-02-19T02:16:52.601Z,1.53
2023-02-19T02:18:00.252Z,1.30
2023-02-19T02:19:20.074Z,1.40
2023-02-19T02:20:40.283Z,1.20
2023-02-19T02:21:48.983Z,1.13
2023-02-19T02:22:59.541Z,1.27
2023-02-19T02:24:04.277Z,1.30
2023-02-19T02:25:12.186Z,1.10
2023-02-19T02:26:26.848Z,1.23
2023-02-19T02:27:40.392Z,1.00
2023-02-19T02:29:00.540Z,1.27
2023-02-19T02:30:20.149Z,1.20
2023-02-19T02:31:31.650Z,1.13
2023-02-19T02:32:40.323Z,1.10
2023-02-19T02:33:49.311Z,1.10
2023-02-19T02:34:59.575Z,1.00
2023-02-19T02:36:04.762Z,0.97
2023-02-19T02:37:08.065Z,1.20
2023-02-19T02:38:11.572Z,1.10
2023-02-19T02:39:13.931Z,0.90
2023-02-19T02:40:15.433Z,0.97
2023-02-19T02:41:17.355Z,0.93
2023-02-19T02:42:28.033Z,1.10
2023-02-19T02:43:42.406Z,0.90
2023-02-19T02:45:07.253Z,1.07
2023-02-19T02:46:13.416Z,0.93
2023-02-19T02:47:35.079Z,0.70
2023-02-19T02:48:41.405Z,0.80
2023-02-19T02:50:03.279Z,0.97
2023-02-19T02:51:23.329Z,0.90
2023-02-19T02:52:52.403Z,0.87
2023-02-19T02:54:15.466Z,0.93
2023-02-19T02:55:17.360Z,1.03
2023-02-19T02:56:19.568Z,0.90
2023-02-19T02:57:20.946Z,0.90
2023-02-19T02:58:30.253Z,0.80
2023-02-19T02:59:35.723Z,0.70
2023-02-19T03:00:58.071Z,1.10
2023-02-19T03:02:11.475Z,1.03
2023-02-19T03:03:14.510Z,0.90
2023-02-19T03:04:19.322Z,0.90
2023-02-19T03:05:41.532Z,0.90
2023-02-19T03:06:44.118Z,1.10
2023-02-19T03:07:47.870Z,1.20
2023-02-19T03:08:56.963Z,1.00
2023-02-19T03:10:00.476Z,1.20
2023-02-19T03:11:24.773Z,1.30
2023-02-19T03:12:46.478Z,2.10
2023-02-19T03:14:07.579Z,5.27
2023-02-19T03:15:28.345Z,3.00
2023-02-19T03:16:50.885Z,2.33
2023-02-19T03:18:13.797Z,1.40
2023-02-19T03:19:19.252Z,1.40
2023-02-19T03:20:23.594Z,1.40
2023-02-19T03:21:25.678Z,1.40
2023-02-19T03:22:31.986Z,1.60
2023-02-19T03:23:54.812Z,1.40
2023-02-19T03:25:19.216Z,1.50
2023-02-19T03:26:20.996Z,1.60
2023-02-19T03:27:27.944Z,1.50
2023-02-19T03:28:50.510Z,1.80
2023-02-19T03:29:53.340Z,1.70
2023-02-19T03:30:55.402Z,1.73
2023-02-19T03:31:58.431Z,1.57
2023-02-19T03:33:08.058Z,2.07
2023-02-19T03:34:12.085Z,2.00
2023-02-19T03:35:15.865Z,1.83
2023-02-19T03:36:18.826Z,1.93
2023-02-19T03:37:25.220Z,2.00
2023-02-19T03:38:31.715Z,2.10
2023-02-19T03:39:33.254Z,2.43
2023-02-19T03:40:40.428Z,2.40
2023-02-19T03:41:58.308Z,2.37
2023-02-19T03:43:18.096Z,2.37
2023-02-19T03:44:32.432Z,2.60
2023-02-19T03:45:38.002Z,2.53
2023-02-19T03:46:40.383Z,2.33
2023-02-19T03:47:41.968Z,2.90
2023-02-19T03:48:54.445Z,2.63
2023-02-19T03:49:58.555Z,2.50
2023-02-19T03:50:59.974Z,2.50
2023-02-19T03:52:06.921Z,2.50
2023-02-19T03:53:27.252Z,2.80
2023-02-19T03:54:31.709Z,2.47
2023-02-19T03:55:58.975Z,2.80
2023-02-19T03:57:05.808Z,2.47
2023-02-19T03:58:14.774Z,2.77
2023-02-19T03:59:18.953Z,2.50
2023-02-19T04:00:27.968Z,2.80
2023-02-19T04:01:37.893Z,3.20
2023-02-19T04:03:00.300Z,3.07
2023-02-19T04:04:09.131Z,3.20
2023-02-19T04:05:16.155Z,2.60
2023-02-19T04:06:22.241Z,2.70
2023-02-19T04:07:24.037Z,3.10
2023-02-19T04:08:26.246Z,3.03
2023-02-19T04:09:37.361Z,3.43
2023-02-19T04:10:44.075Z,2.50
2023-02-19T04:11:45.509Z,3.10
2023-02-19T04:12:51.542Z,3.10
2023-02-19T04:14:16.178Z,3.20
2023-02-19T04:15:21.743Z,3.40
2023-02-19T04:16:24.899Z,3.40
2023-02-19T04:17:35.858Z,3.50
2023-02-19T04:18:39.378Z,3.00
2023-02-19T04:19:42.100Z,3.57
2023-02-19T04:20:44.487Z,3.30
2023-02-19T04:21:46.404Z,3.50
2023-02-19T04:22:48.326Z,3.30
2023-02-19T04:23:50.088Z,3.37
2023-02-19T04:24:53.244Z,3.20
2023-02-19T04:25:56.687Z,3.50
2023-02-19T04:26:57.973Z,3.13
2023-02-19T04:27:59.300Z,3.30
2023-02-19T04:29:01.210Z,3.10
2023-02-19T04:30:02.562Z,3.50
2023-02-19T04:31:04.053Z,3.63
2023-02-19T04:32:05.547Z,3.60
2023-02-19T04:33:06.910Z,3.57
2023-02-19T04:34:08.683Z,3.30
2023-02-19T04:35:10.036Z,3.27
2023-02-19T04:36:11.798Z,3.43
2023-02-19T04:37:13.335Z,3.60
2023-02-19T04:38:14.811Z,3.43
2023-02-19T04:39:16.144Z,3.63
2023-02-19T04:40:17.482Z,3.50
2023-02-19T04:41:18.791Z,3.47
2023-02-19T04:42:20.156Z,3.30
2023-02-19T04:43:21.481Z,3.63
2023-02-19T04:44:22.796Z,3.63
2023-02-19T04:45:24.125Z,3.60
2023-02-19T04:46:25.466Z,3.47
2023-02-19T04:47:26.772Z,3.67
2023-02-19T04:48:28.356Z,3.60
2023-02-19T04:49:29.774Z,3.90
2023-02-19T04:50:31.662Z,3.83
2023-02-19T04:51:33.087Z,3.80
2023-02-19T04:52:35.384Z,3.97
2023-02-19T04:53:36.978Z,3.90
2023-02-19T04:54:38.279Z,3.47
2023-02-19T04:55:39.775Z,3.60
2023-02-19T04:56:41.129Z,3.73
2023-02-19T04:57:42.472Z,3.80
2023-02-19T04:58:44.563Z,3.50
2023-02-19T04:59:46.207Z,3.80
2023-02-19T05:00:51.091Z,3.20
2023-02-19T05:01:52.448Z,3.40
2023-02-19T05:02:53.772Z,3.37
2023-02-19T05:03:55.087Z,3.43
2023-02-19T05:04:56.506Z,3.87
2023-02-19T05:05:57.865Z,3.43
2023-02-19T05:06:59.214Z,3.83
2023-02-19T05:08:00.528Z,3.40
2023-02-19T05:09:01.937Z,3.80
2023-02-19T05:10:03.651Z,3.77
2023-02-19T05:11:06.098Z,3.73
2023-02-19T05:12:07.488Z,3.80
2023-02-19T05:13:08.885Z,3.60
2023-02-19T05:14:10.326Z,3.97
2023-02-19T05:15:11.727Z,3.90
2023-02-19T05:16:15.866Z,3.67
2023-02-19T05:17:17.297Z,4.00
2023-02-19T05:18:18.644Z,3.70
2023-02-19T05:19:19.990Z,3.70
2023-02-19T05:20:22.904Z,3.80
2023-02-19T05:21:24.290Z,3.60
2023-02-19T05:22:25.727Z,3.60
2023-02-19T05:23:27.473Z,3.77
2023-02-19T05:24:29.836Z,3.60
2023-02-19T05:25:31.261Z,3.70
2023-02-19T05:26:32.779Z,3.70
2023-02-19T05:27:34.140Z,3.40
2023-02-19T05:28:35.610Z,3.60
2023-02-19T05:29:36.886Z,3.90
2023-02-19T05:30:38.229Z,3.47
2023-02-19T05:31:39.687Z,3.50
2023-02-19T05:32:41.059Z,3.63
2023-02-19T05:33:48.133Z,3.60
2023-02-19T05:34:50.704Z,3.70
2023-02-19T05:35:53.362Z,3.83
2023-02-19T05:36:54.664Z,3.40
2023-02-19T05:37:56.006Z,4.07
2023-02-19T05:38:57.724Z,3.70
2023-02-19T05:39:59.047Z,3.40
2023-02-19T05:41:26.835Z,3.80
2023-02-19T05:42:28.180Z,3.87
2023-02-19T05:43:29.490Z,4.00
2023-02-19T05:44:30.804Z,3.80
2023-02-19T05:45:32.273Z,3.80
2023-02-19T05:46:33.702Z,3.97
2023-02-19T05:47:35.183Z,3.50
2023-02-19T05:48:36.669Z,3.80
2023-02-19T05:49:38.070Z,3.53
2023-02-19T05:50:39.955Z,3.90
2023-02-19T05:51:50.806Z,3.93
2023-02-19T05:52:52.186Z,3.70
2023-02-19T05:53:53.813Z,3.93
2023-02-19T05:54:55.137Z,3.63
2023-02-19T05:55:56.496Z,3.77
2023-02-19T05:56:58.026Z,3.60
2023-02-19T05:57:59.423Z,3.70
2023-02-19T05:59:03.704Z,3.60
2023-02-19T06:00:05.438Z,3.70
2023-02-19T06:01:15.116Z,3.60
2023-02-19T06:02:16.405Z,4.00
2023-02-19T06:03:17.960Z,3.73
2023-02-19T06:04:20.366Z,3.70
2023-02-19T06:05:21.750Z,3.70
2023-02-19T06:06:23.309Z,3.90
2023-02-19T06:07:24.664Z,3.70
2023-02-19T06:08:26.039Z,4.00
2023-02-19T06:09:27.390Z,4.33
2023-02-19T06:10:28.788Z,3.97
2023-02-19T06:11:30.375Z,3.97
2023-02-19T06:12:31.725Z,4.23
2023-02-19T06:13:33.092Z,3.87
2023-02-19T06:14:34.377Z,4.10
2023-02-19T06:15:38.886Z,3.97
2023-02-19T06:16:40.666Z,4.00
2023-02-19T06:17:42.048Z,4.30
2023-02-19T06:18:43.806Z,3.97
2023-02-19T06:19:45.111Z,4.10
2023-02-19T06:20:46.416Z,4.00
2023-02-19T06:21:50.019Z,4.17
2023-02-19T06:22:51.869Z,3.63
2023-02-19T06:23:53.188Z,4.03
2023-02-19T06:24:54.500Z,4.10
2023-02-19T06:25:55.850Z,4.27
2023-02-19T06:27:03.035Z,3.63
2023-02-19T06:28:11.701Z,4.40
2023-02-19T06:29:13.018Z,3.90
2023-02-19T06:30:14.389Z,3.93
2023-02-19T06:31:16.363Z,3.97
2023-02-19T06:32:20.513Z,3.83
2023-02-19T06:33:24.312Z,4.20
2023-02-19T06:34:25.816Z,4.00
2023-02-19T06:35:34.605Z,4.40
2023-02-19T06:36:35.973Z,3.90
2023-02-19T06:37:38.785Z,4.03
2023-02-19T06:38:40.328Z,4.13
2023-02-19T06:39:41.727Z,4.00
2023-02-19T06:40:43.050Z,3.80
2023-02-19T06:41:47.302Z,3.80
2023-02-19T06:42:48.593Z,3.80
2023-02-19T06:44:15.443Z,3.97
2023-02-19T06:45:15.524Z,3.67
2023-02-19T06:46:17.022Z,3.90
2023-02-19T06:47:18.426Z,3.50
2023-02-19T06:48:19.954Z,4.07
2023-02-19T06:49:21.716Z,3.40
2023-02-19T06:50:23.055Z,3.83
2023-02-19T06:51:27.132Z,3.97
2023-02-19T06:52:28.512Z,3.60
2023-02-19T06:53:30.011Z,4.10
2023-02-19T06:54:31.585Z,3.73
2023-02-19T06:55:32.957Z,3.63
2023-02-19T06:56:35.403Z,3.23
2023-02-19T06:57:36.823Z,3.97
2023-02-19T06:58:38.178Z,4.20
2023-02-19T06:59:39.698Z,4.03
2023-02-19T07:00:41.083Z,3.60
2023-02-19T07:01:42.918Z,3.50
2023-02-19T07:02:45.484Z,3.53
2023-02-19T07:03:46.841Z,4.00
2023-02-19T07:04:52.279Z,3.60
2023-02-19T07:05:53.973Z,4.00
2023-02-19T07:06:55.294Z,3.63
2023-02-19T07:07:56.680Z,4.20
2023-02-19T07:08:58.651Z,4.23
2023-02-19T07:10:00.277Z,4.23
2023-02-19T07:11:01.702Z,3.87
2023-02-19T07:12:03.135Z,3.83
2023-02-19T07:13:04.873Z,3.60
2023-02-19T07:14:10.073Z,3.80
2023-02-19T07:15:11.482Z,4.00
2023-02-19T07:16:13.377Z,3.63
2023-02-19T07:17:14.823Z,3.53
2023-02-19T07:18:16.157Z,3.70
2023-02-19T07:19:17.530Z,3.57
2023-02-19T07:20:18.921Z,3.63
2023-02-19T07:21:20.252Z,3.63
2023-02-19T07:22:21.632Z,3.33
2023-02-19T07:23:22.942Z,3.83
2023-02-19T07:24:24.255Z,3.60
2023-02-19T07:25:25.693Z,3.90
2023-02-19T07:26:28.907Z,3.33
2023-02-19T07:27:30.217Z,3.83
2023-02-19T07:28:31.522Z,3.60
2023-02-19T07:29:32.824Z,3.40
2023-02-19T07:30:34.468Z,3.70
2023-02-19T07:31:35.937Z,3.57
2023-02-19T07:32:40.749Z,3.87
2023-02-19T07:33:45.528Z,3.73
2023-02-19T07:34:46.853Z,3.40
2023-02-19T07:35:48.994Z,4.13
2023-02-19T07:36:50.324Z,3.37
2023-02-19T07:37:51.677Z,3.40
2023-02-19T07:38:55.237Z,3.47
2023-02-19T07:39:56.555Z,3.60
2023-02-19T07:41:01.933Z,3.63
2023-02-19T07:42:03.332Z,3.80
2023-02-19T07:43:06.883Z,4.50
2023-02-19T07:44:08.261Z,3.77
2023-02-19T07:45:09.792Z,3.20
2023-02-19T07:46:12.807Z,3.40
2023-02-19T07:47:14.282Z,3.30
2023-02-19T07:48:15.804Z,3.77
2023-02-19T07:49:17.250Z,3.30
2023-02-19T07:50:18.664Z,3.90
2023-02-19T07:51:20.733Z,3.40
2023-02-19T07:52:22.189Z,3.70
2023-02-19T07:53:24.077Z,3.17
2023-02-19T07:54:25.440Z,3.37
2023-02-19T07:55:26.907Z,3.40
2023-02-19T07:56:29.030Z,3.50
2023-02-19T07:57:31.363Z,3.43
2023-02-19T07:58:33.272Z,3.43
2023-02-19T07:59:34.711Z,3.40
2023-02-19T08:00:36.089Z,3.27
2023-02-19T08:01:56.225Z,3.33
2023-02-19T08:03:00.482Z,3.10
2023-02-19T08:04:01.870Z,3.10
2023-02-19T08:05:03.803Z,3.07
2023-02-19T08:06:05.368Z,3.30
2023-02-19T08:07:06.788Z,3.40
2023-02-19T08:08:09.082Z,3.27
2023-02-19T08:09:10.602Z,3.50
2023-02-19T08:10:30.375Z,2.83
2023-02-19T08:11:50.356Z,2.90
2023-02-19T08:13:13.790Z,3.07
2023-02-19T08:14:15.152Z,3.03
2023-02-19T08:15:16.465Z,3.10
2023-02-19T08:16:29.658Z,2.87
2023-02-19T08:17:38.686Z,3.27
2023-02-19T08:18:40.001Z,3.33
2023-02-19T08:19:41.402Z,3.60
2023-02-19T08:20:43.274Z,3.53
2023-02-19T08:21:44.654Z,3.17
2023-02-19T08:22:45.978Z,3.47
2023-02-19T08:23:49.334Z,3.13
2023-02-19T08:24:52.305Z,3.30
2023-02-19T08:25:56.398Z,3.20
2023-02-19T08:26:57.926Z,3.17
2023-02-19T08:28:00.428Z,2.87
2023-02-19T08:29:01.959Z,3.30
2023-02-19T08:30:04.369Z,3.07
2023-02-19T08:31:06.740Z,2.93
2023-02-19T08:32:08.230Z,3.40
2023-02-19T08:33:10.336Z,3.07
2023-02-19T08:34:14.540Z,2.93
2023-02-19T08:35:15.975Z,3.27
2023-02-19T08:36:17.320Z,2.93
2023-02-19T08:37:18.665Z,3.00
2023-02-19T08:38:20.018Z,3.47
2023-02-19T08:39:21.408Z,2.90
2023-02-19T08:40:22.857Z,3.20
2023-02-19T08:41:24.282Z,3.23
2023-02-19T08:42:25.592Z,3.43
2023-02-19T08:43:27.075Z,3.53
2023-02-19T08:44:28.378Z,3.40
2023-02-19T08:45:30.023Z,3.30
2023-02-19T08:46:33.449Z,3.30
2023-02-19T08:47:36.092Z,3.10
2023-02-19T08:48:37.865Z,3.00
2023-02-19T08:49:39.233Z,3.20
2023-02-19T08:50:40.928Z,3.00
2023-02-19T08:51:42.223Z,3.20
2023-02-19T08:52:43.645Z,2.90
2023-02-19T08:53:45.698Z,2.97
2023-02-19T08:54:47.032Z,3.10
2023-02-19T08:55:48.606Z,2.93
2023-02-19T08:56:49.926Z,3.23
2023-02-19T08:57:51.287Z,3.27
2023-02-19T08:58:52.709Z,3.23
2023-02-19T08:59:53.997Z,3.27
2023-02-19T09:00:55.384Z,2.70
2023-02-19T09:01:58.437Z,3.27
2023-02-19T09:02:59.894Z,3.17
2023-02-19T09:04:01.426Z,3.27
2023-02-19T09:05:03.070Z,3.30
2023-02-19T09:06:04.481Z,3.50
2023-02-19T09:07:08.130Z,3.30
2023-02-19T09:08:10.383Z,3.03
2023-02-19T09:09:11.834Z,3.30
2023-02-19T09:10:13.757Z,3.10
2023-02-19T09:11:15.442Z,3.10
2023-02-19T09:12:16.808Z,3.00
2023-02-19T09:13:18.143Z,2.93
2023-02-19T09:14:19.520Z,2.97
2023-02-19T09:15:22.775Z,3.17
2023-02-19T09:16:24.130Z,3.03
2023-02-19T09:17:25.768Z,3.37
2023-02-19T09:18:27.153Z,2.97
2023-02-19T09:19:28.855Z,2.83
2023-02-19T09:20:30.200Z,3.20
2023-02-19T09:21:31.679Z,3.00
2023-02-19T09:22:33.064Z,2.70
2023-02-19T09:23:35.367Z,3.13
2023-02-19T09:24:36.691Z,2.93
2023-02-19T09:25:38.016Z,3.00
2023-02-19T09:26:41.777Z,2.87
2023-02-19T09:27:43.273Z,2.57
2023-02-19T09:28:44.647Z,3.03
2023-02-19T09:29:46.107Z,2.73
2023-02-19T09:30:47.457Z,3.03
2023-02-19T09:31:48.967Z,2.80
2023-02-19T09:32:50.396Z,2.83
2023-02-19T09:33:51.716Z,2.90
2023-02-19T09:34:53.041Z,2.90
2023-02-19T09:35:54.443Z,2.50
2023-02-19T09:36:56.090Z,2.50
2023-02-19T09:37:59.041Z,2.90
2023-02-19T09:39:00.849Z,2.50
2023-02-19T09:40:02.246Z,2.63
2023-02-19T09:41:07.943Z,2.80
2023-02-19T09:42:13.847Z,2.73
2023-02-19T09:43:19.289Z,2.43
2023-02-19T09:44:29.779Z,2.70
2023-02-19T09:45:31.223Z,2.97
2023-02-19T09:46:35.319Z,2.50
2023-02-19T09:47:36.903Z,2.67
2023-02-19T09:48:41.232Z,2.10
2023-02-19T09:49:49.884Z,2.40
2023-02-19T09:50:51.308Z,2.50
2023-02-19T09:51:59.433Z,2.73
2023-02-19T09:53:03.686Z,1.90
2023-02-19T09:54:06.550Z,1.90
2023-02-19T09:55:16.522Z,2.20
2023-02-19T09:56:20.339Z,2.30
2023-02-19T09:57:21.716Z,2.33
2023-02-19T09:58:26.933Z,2.00
2023-02-19T09:59:41.046Z,2.03
2023-02-19T10:00:47.988Z,2.10
2023-02-19T10:01:52.481Z,2.40
2023-02-19T10:02:54.256Z,2.10
2023-02-19T10:03:55.635Z,1.90
2023-02-19T10:04:57.190Z,2.00
2023-02-19T10:05:59.442Z,1.97
2023-02-19T10:07:03.715Z,2.40
2023-02-19T10:08:07.053Z,2.60
2023-02-19T10:09:27.138Z,2.30
2023-02-19T10:10:35.963Z,2.20
2023-02-19T10:11:37.306Z,2.50
2023-02-19T10:12:39.813Z,2.40
2023-02-19T10:13:50.707Z,2.13
2023-02-19T10:14:56.263Z,2.70
2023-02-19T10:15:58.712Z,2.60
2023-02-19T10:17:01.390Z,2.87
2023-02-19T10:18:04.031Z,2.70
2023-02-19T10:19:06.161Z,2.10
2023-02-19T10:20:10.067Z,2.20
2023-02-19T10:21:14.243Z,2.20
2023-02-19T10:22:15.619Z,2.10
2023-02-19T10:23:17.126Z,2.30
2023-02-19T10:24:21.516Z,2.30
2023-02-19T10:25:22.887Z,2.30
2023-02-19T10:26:24.339Z,2.20
2023-02-19T10:27:31.987Z,2.50
2023-02-19T10:28:34.692Z,2.70
2023-02-19T10:29:36.911Z,2.17
2023-02-19T10:30:38.284Z,2.30
2023-02-19T10:31:39.740Z,2.20
2023-02-19T10:32:57.415Z,2.40
2023-02-19T10:34:03.001Z,2.07
2023-02-19T10:35:07.326Z,2.60
2023-02-19T10:36:20.591Z,2.50
2023-02-19T10:37:21.948Z,2.53
2023-02-19T10:38:33.626Z,2.20
2023-02-19T10:39:40.058Z,2.20
2023-02-19T10:40:44.030Z,2.63
2023-02-19T10:41:45.372Z,2.57
2023-02-19T10:42:47.721Z,2.80
2023-02-19T10:43:54.278Z,2.60
2023-02-19T10:44:58.737Z,3.00
2023-02-19T10:46:03.028Z,2.70
2023-02-19T10:47:04.466Z,2.33
2023-02-19T10:48:07.412Z,2.03
2023-02-19T10:49:26.480Z,2.73
2023-02-19T10:50:29.730Z,2.43
2023-02-19T10:51:32.904Z,2.17
2023-02-19T10:52:36.123Z,2.63
2023-02-19T10:53:40.202Z,2.23
2023-02-19T10:54:41.811Z,2.00
2023-02-19T10:55:43.187Z,2.13
2023-02-19T10:56:44.563Z,2.30
2023-02-19T10:57:46.805Z,2.60
2023-02-19T10:58:48.143Z,2.00
2023-02-19T10:59:50.538Z,2.70
2023-02-19T11:01:09.792Z,1.87
2023-02-19T11:02:18.763Z,1.90
2023-02-19T11:03:21.667Z,2.23
2023-02-19T11:04:23.203Z,2.40
2023-02-19T11:05:25.031Z,2.17
2023-02-19T11:06:26.671Z,2.00
2023-02-19T11:07:28.138Z,2.33
2023-02-19T11:08:30.957Z,2.00
2023-02-19T11:09:39.667Z,2.27
2023-02-19T11:10:42.414Z,2.10
2023-02-19T11:11:43.776Z,2.00
2023-02-19T11:12:47.366Z,1.70
2023-02-19T11:13:48.760Z,2.03
2023-02-19T11:14:51.317Z,1.90
2023-02-19T11:15:54.652Z,2.17
2023-02-19T11:16:57.158Z,2.20
2023-02-19T11:18:07.832Z,2.40
2023-02-19T11:19:21.736Z,1.77
2023-02-19T11:20:23.481Z,2.10
2023-02-19T11:21:28.281Z,1.73
2023-02-19T11:22:29.585Z,1.83
2023-02-19T11:23:46.449Z,1.97
2023-02-19T11:24:49.561Z,2.13
2023-02-19T11:25:52.902Z,1.93
2023-02-19T11:26:54.453Z,2.10
2023-02-19T11:28:04.001Z,1.90
2023-02-19T11:29:17.038Z,1.70
2023-02-19T11:30:30.614Z,1.70
2023-02-19T11:31:32.737Z,1.93
2023-02-19T11:32:34.106Z,1.80
2023-02-19T11:33:35.427Z,1.40
2023-02-19T11:34:36.764Z,1.80
2023-02-19T11:35:38.326Z,1.90
2023-02-19T11:36:40.009Z,1.60
2023-02-19T11:37:53.526Z,1.60
2023-02-19T11:38:55.549Z,1.53
2023-02-19T11:39:56.968Z,1.77
2023-02-19T11:41:11.295Z,1.60
2023-02-19T11:42:13.052Z,1.60
2023-02-19T11:43:22.025Z,1.70
2023-02-19T11:44:30.130Z,1.40
2023-02-19T11:45:34.275Z,1.23
2023-02-19T11:46:38.696Z,1.50
2023-02-19T11:47:46.133Z,1.30
2023-02-19T11:49:01.432Z,1.40
2023-02-19T11:50:09.174Z,1.30
2023-02-19T11:51:10.820Z,1.47
2023-02-19T11:52:27.876Z,1.50
2023-02-19T11:53:32.125Z,1.90
2023-02-19T11:54:46.055Z,2.00
2023-02-19T11:55:47.379Z,2.10
2023-02-19T11:56:51.899Z,1.60
2023-02-19T11:58:00.446Z,1.70
2023-02-19T11:59:09.699Z,1.50
2023-02-19T12:00:23.069Z,1.50
2023-02-19T12:01:36.147Z,1.50
2023-02-19T12:02:37.510Z,1.53
2023-02-19T12:03:38.860Z,1.63
2023-02-19T12:04:43.168Z,1.50
2023-02-19T12:06:03.270Z,1.60
2023-02-19T12:07:23.306Z,1.70
2023-02-19T12:08:24.649Z,1.70
2023-02-19T12:09:49.031Z,1.70
2023-02-19T12:11:01.746Z,1.60
2023-02-19T12:12:22.378Z,1.50
2023-02-19T12:13:26.483Z,1.80
2023-02-19T12:14:33.916Z,1.33
2023-02-19T12:15:41.041Z,1.73
2023-02-19T12:16:42.364Z,1.77
2023-02-19T12:17:58.254Z,1.87
2023-02-19T12:19:11.449Z,1.63
2023-02-19T12:20:37.687Z,1.83
2023-02-19T12:21:39.079Z,1.40
2023-02-19T12:22:40.395Z,1.67
2023-02-19T12:23:47.775Z,1.70
2023-02-19T12:24:55.753Z,1.70
2023-02-19T12:26:00.218Z,1.80
2023-02-19T12:27:25.651Z,1.63
2023-02-19T12:28:32.967Z,2.00
2023-02-19T12:29:37.290Z,2.20
2023-02-19T12:30:44.822Z,2.20
2023-02-19T12:32:09.862Z,2.27
2023-02-19T12:33:14.213Z,2.10
2023-02-19T12:34:15.520Z,2.47
2023-02-19T12:35:46.633Z,2.50
2023-02-19T12:37:00.356Z,1.83
2023-02-19T12:38:08.069Z,2.00
2023-02-19T12:39:22.692Z,2.03
2023-02-19T12:40:26.744Z,2.00
2023-02-19T12:41:46.941Z,2.30
2023-02-19T12:42:57.488Z,2.10
2023-02-19T12:44:01.015Z,2.23
2023-02-19T12:45:07.476Z,2.53
2023-02-19T12:46:14.145Z,2.60
2023-02-19T12:47:18.461Z,2.33
2023-02-19T12:48:35.960Z,2.40
2023-02-19T12:49:40.999Z,2.20
2023-02-19T12:50:43.704Z,2.30
2023-02-19T12:51:49.334Z,2.43
2023-02-19T12:52:53.095Z,2.13
2023-02-19T12:53:58.395Z,2.20
2023-02-19T12:55:02.988Z,2.30
2023-02-19T12:56:06.345Z,2.30
2023-02-19T12:57:14.191Z,2.10
2023-02-19T12:58:38.871Z,2.17
2023-02-19T12:59:40.287Z,2.10
2023-02-19T13:00:49.420Z,2.10
2023-02-19T13:02:03.846Z,2.33
2023-02-19T13:03:10.133Z,2.17
2023-02-19T13:04:17.706Z,1.83
2023-02-19T13:05:22.827Z,2.03
2023-02-19T13:06:27.697Z,2.10
2023-02-19T13:07:44.423Z,2.20
2023-02-19T13:09:05.016Z,2.10
2023-02-19T13:10:10.727Z,2.40
2023-02-19T13:11:25.033Z,1.97
2023-02-19T13:12:29.345Z,2.20
2023-02-19T13:13:33.422Z,2.27
2023-02-19T13:14:41.552Z,2.10
2023-02-19T13:15:44.212Z,2.23
2023-02-19T13:16:48.401Z,1.97
2023-02-19T13:17:57.025Z,1.80
2023-02-19T13:19:02.569Z,1.80
2023-02-19T13:20:22.507Z,1.70
2023-02-19T13:22:00.269Z,1.77
2023-02-19T13:23:25.339Z,2.07
2023-02-19T13:24:32.264Z,1.70
2023-02-19T13:25:52.214Z,1.73
2023-02-19T13:26:56.674Z,1.83
2023-02-19T13:28:24.376Z,1.77
2023-02-19T13:29:45.039Z,1.90
2023-02-19T13:30:46.500Z,1.50
2023-02-19T13:32:03.276Z,2.00
2023-02-19T13:33:18.569Z,1.80
2023-02-19T13:34:22.523Z,2.00
2023-02-19T13:35:42.832Z,1.57
2023-02-19T13:36:44.452Z,2.03
2023-02-19T13:37:46.194Z,1.70
2023-02-19T13:38:48.535Z,1.63
2023-02-19T13:39:51.451Z,1.83
2023-02-19T13:40:56.863Z,1.70
2023-02-19T13:42:01.761Z,1.87
2023-02-19T13:43:05.036Z,1.90
2023-02-19T13:44:08.325Z,1.80
2023-02-19T13:45:21.153Z,1.90
2023-02-19T13:46:22.872Z,2.13
2023-02-19T13:47:42.842Z,2.17
2023-02-19T13:48:44.434Z,1.73
2023-02-19T13:49:48.544Z,1.67
2023-02-19T13:50:50.391Z,1.90
2023-02-19T13:51:52.766Z,1.80
2023-02-19T13:53:00.854Z,1.73
2023-02-19T13:54:13.104Z,1.80
2023-02-19T13:55:33.434Z,1.80
2023-02-19T13:56:34.754Z,2.10
2023-02-19T13:57:37.466Z,2.20
2023-02-19T13:58:51.711Z,2.17
2023-02-19T13:59:53.977Z,1.70
2023-02-19T14:00:55.353Z,2.00
2023-02-19T14:01:56.696Z,2.13
2023-02-19T14:03:17.436Z,2.00
2023-02-19T14:04:18.793Z,2.10
2023-02-19T14:05:40.094Z,1.93
2023-02-19T14:07:00.139Z,1.80
2023-02-19T14:08:01.678Z,1.70
2023-02-19T14:09:03.107Z,1.70
2023-02-19T14:10:05.581Z,1.90
2023-02-19T14:11:08.409Z,1.80
2023-02-19T14:12:10.292Z,1.60
2023-02-19T14:13:11.628Z,1.53
2023-02-19T14:14:31.719Z,1.60
2023-02-19T14:15:41.809Z,1.77
2023-02-19T14:16:43.174Z,1.73
2023-02-19T14:17:45.697Z,1.60
2023-02-19T14:18:47.104Z,1.83
2023-02-19T14:19:48.757Z,1.50
2023-02-19T14:21:05.685Z,1.80
2023-02-19T14:22:25.838Z,1.90
2023-02-19T14:23:27.215Z,1.63
2023-02-19T14:24:28.548Z,1.87
2023-02-19T14:25:38.118Z,1.90
2023-02-19T14:26:39.851Z,1.70